Latest Weather Observations for Latrobe Valley

IDV60801

Issued at 1:35 pm EDT Thursday 23 October 2014 (issued every 30 minutes, with the page automatically refreshed every 10 minutes)

About weather observations | Map of weather stations | Latest weather observations for VIC | Other Formats
Station Details ID: 085280 Name: LATROBE VALLEY AIRPORT Lat: -38.21 Lon: 146.47 Height: 55.7 m
Data from the previous 72 hours. | See also: Recent months at Latrobe Valley
Date/Time
EDT
Temp
°C
App
Temp
°C
Dew
Point
Rel
Hum
%
Delta-T
°C
Wind Press
QNH
hPa
Press
MSL
hPa
Rain
since 9 am
mm
Dir
 
Spd
km/h
Gust
km/h
Spd
kts
Gust
kts
23/01:30pm 16.7 14.3 14.5 87 1.3 E 20 28 11 15 1020.3 1020.3 0.0
23/01:00pm 16.6 15.0 15.0 90 0.9 E 17 26 9 14 1020.5 1020.5 0.0
23/12:30pm 17.0 15.4 15.0 88 1.2 E 17 26 9 14 1020.4 1020.4 0.0
23/12:00pm 17.0 15.7 14.8 87 1.3 E 15 22 8 12 1020.7 1020.7 0.0
23/11:30am 16.8 15.3 15.2 90 0.9 E 17 26 9 14 1021.0 1021.0 0.0
23/11:00am 16.6 15.5 14.2 86 1.4 ENE 13 19 7 10 1021.2 1021.2 0.0
23/10:30am 16.5 15.8 14.3 87 1.3 ENE 11 17 6 9 1021.2 1021.2 0.0
23/10:00am 16.3 16.2 13.4 83 1.6 E 6 9 3 5 1021.0 1021.0 0.0
23/09:30am 16.3 16.2 13.4 83 1.6 SSW 6 9 3 5 1020.7 1020.7 0.0
23/09:00am 16.5 15.8 14.3 87 1.3 WSW 11 15 6 8 1020.6 1020.6 0.0
23/08:30am 15.8 14.2 14.0 89 1.0 W 15 19 8 10 1020.5 1020.5 0.0
23/08:00am 15.6 13.7 14.3 92 0.7 WSW 17 20 9 11 1020.3 1020.3 0.0
23/07:30am 15.0 13.7 14.7 98 0.2 W 15 20 8 11 1019.9 1019.9 0.0
23/07:00am 14.7 14.1 14.7 100 0.0 W 11 15 6 8 1019.8 1019.8 0.0
23/06:30am 14.7 13.3 14.5 99 0.1 W 15 20 8 11 1019.5 1019.5 0.0
23/06:00am 14.7 12.9 14.5 99 0.1 W 17 20 9 11 1018.8 1018.8 0.0
23/05:30am 15.0 12.8 14.5 97 0.3 W 19 24 10 13 1018.1 1018.1 0.0
23/05:13am 14.7 12.9 14.4 98 0.2 W 17 26 9 14 1017.9 1017.9 0.0
23/05:00am 14.7 11.5 14.2 97 0.3 W 24 32 13 17 1017.5 1017.5 0.0
23/04:30am 15.1 11.6 14.5 96 0.3 SW 26 35 14 19 1016.9 1016.9 0.0
23/04:00am 15.6 13.2 14.5 93 0.6 WSW 20 24 11 13 1016.4 1016.4 0.0
23/03:30am 16.2 13.9 14.0 87 1.2 W 19 26 10 14 1016.1 1016.1 0.0
23/03:00am 16.5 14.9 15.0 91 0.9 N 17 28 9 15 1014.9 1014.9 0.0
23/02:46am 16.3 14.3 15.0 92 0.8 NE 19 20 10 11 1016.0 1016.0 0.0
23/02:30am 16.6 14.5 15.1 91 0.9 W 20 28 11 15 1018.0 1018.0 0.0
23/02:06am 16.5 11.9 15.2 92 0.8 WNW 33 39 18 21 1018.0 1018.0 0.0
23/02:00am 16.8 17.3 15.0 89 1.0 NW 6 19 3 10 1017.2 1017.2 0.0
23/01:30am 17.9 15.9 14.0 78 2.2 WSW 17 24 9 13 1018.8 1018.8 0.0
23/01:21am 18.2 13.7 13.7 75 2.6 W 30 48 16 26 1019.1 1019.1 0.0
23/01:16am 18.5 11.9 13.8 74 2.7 WSW 41 48 22 26 1019.3 1019.3 0.0
23/01:00am 17.1 15.7 14.6 85 1.4 W 15 22 8 12 1018.1 1018.1 0.0
23/12:30am 16.2 15.4 14.0 87 1.2 WSW 11 17 6 9 1017.2 1017.2 0.0
23/12:00am 18.1 17.7 14.0 77 2.3 S 9 11 5 6 1016.5 1016.5 0.0
 
Date/Time
EDT
Temp
°C
App
Temp
°C
Dew
Point
Rel
Hum
%
Delta-T
°C
Wind Press
QNH
hPa
Press
MSL
hPa
Rain
since 9 am
mm
Dir
 
Spd
km/h
Gust
km/h
Spd
kts
Gust
kts
22/11:30pm 18.0 18.6 14.3 79 2.1 S 4 9 2 5 1016.3 1016.3 0.0
22/11:00pm 17.2 16.9 14.5 84 1.6 NW 9 15 5 8 1016.8 1016.8 0.0
22/10:30pm 17.4 18.7 14.1 81 1.9 CALM 0 0 0 0 1016.3 1016.3 0.0
22/10:00pm 19.1 20.2 13.5 70 3.2 CALM 0 0 0 0 1016.6 1016.6 0.0
22/09:30pm 20.0 20.1 13.9 68 3.5 SE 6 9 3 5 1016.4 1016.4 0.0
22/09:00pm 19.9 19.5 14.0 69 3.4 NE 9 13 5 7 1016.0 1016.0 0.0
22/08:30pm 21.6 20.6 14.5 64 4.2 ENE 13 15 7 8 1015.7 1015.7 0.0
22/08:00pm 23.0 21.7 13.8 56 5.4 ENE 13 17 7 9 1015.2 1015.2 0.0
22/07:30pm 23.2 22.0 11.6 48 6.5 NE 9 11 5 6 1015.0 1015.0 0.0
22/07:00pm 23.6 24.4 14.9 58 5.2 ENE 4 7 2 4 1014.9 1014.9 0.0
22/06:30pm 26.6 25.9 11.5 39 8.6 SE 6 7 3 4 1014.9 1014.9 0.0
22/06:00pm 28.2 26.4 8.0 28 11.0 SSW 7 9 4 5 1014.9 1014.9 0.0
22/05:30pm 28.0 26.0 10.2 33 10.0 SSW 11 15 6 8 1015.0 1015.0 0.0
22/05:00pm 30.0 27.6 11.5 32 10.7 SW 15 19 8 10 1015.2 1015.2 0.0
22/04:30pm 30.3 28.5 12.2 33 10.6 WSW 13 20 7 11 1015.3 1015.3 0.0
22/04:00pm 30.3 27.4 9.8 28 11.6 WSW 15 22 8 12 1015.6 1015.6 0.0
22/03:30pm 29.9 27.8 12.3 33 10.3 WSW 15 20 8 11 1016.0 1016.0 0.0
22/03:00pm 29.8 30.4 15.9 43 8.6 WNW 7 15 4 8 1016.3 1016.3 0.0
22/02:30pm 28.7 29.3 15.2 43 8.3 SSE 6 13 3 7 1016.7 1016.7 0.0
22/02:00pm 27.8 28.1 15.1 46 7.7 SE 7 11 4 6 1017.2 1017.2 0.0
22/01:30pm 27.3 27.1 12.9 41 8.4 N 6 11 3 6 1017.4 1017.4 0.0
22/01:00pm 26.6 26.4 13.0 43 8.0 S 6 11 3 6 1017.9 1017.9 0.0
22/12:30pm 26.3 27.1 14.7 48 7.0 SSE 4 11 2 6 1018.5 1018.5 0.0
22/12:00pm 24.9 25.5 15.2 54 5.8 E 6 9 3 5 1018.8 1018.8 0.0
22/11:30am 23.1 23.3 14.7 59 5.0 NE 7 11 4 6 1019.3 1019.3 0.0
22/11:00am 22.3 22.7 15.4 65 4.1 NE 7 9 4 5 1019.8 1019.8 0.0
22/10:30am 20.9 21.0 13.8 64 4.1 ESE 6 7 3 4 1020.1 1020.1 0.0
22/10:00am 19.5 19.5 14.3 72 3.0 ENE 7 13 4 7 1020.1 1020.1 0.0
22/09:30am 17.7 16.9 13.0 74 2.6 ENE 9 13 5 7 1020.3 1020.3 0.0
22/09:00am 14.9 14.6 12.6 86 1.3 E 6 7 3 4 1020.4 1020.4 0.0
22/08:30am 12.3 13.0 12.3 100 0.0 CALM 0 6 0 3 1020.6 1020.6 0.0
22/08:00am 10.5 10.7 10.5 100 0.0 CALM 0 0 0 0 1020.7 1020.7 0.0
22/07:30am 8.3 7.9 8.3 100 0.0 CALM 0 0 0 0 1021.0 1021.0 0.0
22/07:00am 6.8 6.1 6.8 100 0.0 CALM 0 0 0 0 1021.1 1021.1 0.0
22/06:30am 6.8 6.1 6.8 100 0.0 CALM 0 0 0 0 1021.2 1021.2 0.0
22/06:00am 6.6 5.8 6.6 100 0.0 CALM 0 0 0 0 1020.9 1020.9 0.0
22/05:30am 7.3 6.7 7.3 100 0.0 CALM 0 0 0 0 1020.8 1020.8 0.0
22/05:00am 7.2 6.6 7.2 100 0.0 CALM 0 0 0 0 1020.9 1020.9 0.0
22/04:30am 6.9 6.2 6.9 100 0.0 CALM 0 0 0 0 1021.0 1021.0 0.0
22/04:00am 7.9 7.4 7.9 100 0.0 CALM 0 0 0 0 1021.2 1021.2 0.0
22/03:30am 8.4 8.0 8.4 100 0.0 CALM 0 0 0 0 1021.4 1021.4 0.0
22/03:00am 9.1 7.6 9.1 100 0.0 NE 7 9 4 5 1021.9 1021.9 0.0
22/02:39am 8.8 8.5 8.8 100 0.0 CALM 0 0 0 0 1022.1 1022.1 0.0
22/02:30am 8.5 8.1 8.4 99 0.0 CALM 0 0 0 0 1022.2 1022.2 0.0
22/02:19am 8.5 8.1 8.4 99 0.0 CALM 0 0 0 0 1022.4 1022.4 0.0
22/02:00am 9.5 9.4 9.5 100 0.0 CALM 0 0 0 0 1022.7 1022.7 0.0
22/01:30am 9.7 8.3 9.6 99 0.0 NE 7 9 4 5 1023.2 1023.2 0.0
22/01:00am 10.1 9.0 9.9 99 0.1 E 6 7 3 4 1023.6 1023.6 0.0
22/12:30am 10.5 9.5 10.3 99 0.1 E 6 9 3 5 1024.2 1024.2 0.0
22/12:00am 10.7 9.6 10.5 99 0.1 ENE 7 9 4 5 1024.5 1024.5 0.0
 
Date/Time
EDT
Temp
°C
App
Temp
°C
Dew
Point
Rel
Hum
%
Delta-T
°C
Wind Press
QNH
hPa
Press
MSL
hPa
Rain
since 9 am
mm
Dir
 
Spd
km/h
Gust
km/h
Spd
kts
Gust
kts
21/11:30pm 10.4 8.8 10.2 99 0.1 ENE 9 11 5 6 1024.8 1024.8 0.0
21/11:00pm 10.2 8.5 10.0 99 0.1 NE 9 9 5 5 1025.1 1025.1 0.0
21/10:30pm 10.2 8.8 9.6 96 0.3 NE 7 9 4 5 1025.3 1025.3 0.0
21/10:00pm 11.0 9.2 9.3 89 0.8 NE 9 11 5 6 1025.6 1025.6 0.0
21/09:30pm 12.9 11.7 10.3 84 1.3 E 7 11 4 6 1025.5 1025.5 0.0
21/09:00pm 13.3 12.0 10.1 81 1.6 E 7 13 4 7 1025.5 1025.5 0.0
21/08:30pm 13.8 12.0 9.6 76 2.2 E 9 13 5 7 1025.4 1025.4 0.0
21/08:00pm 14.8 12.7 9.6 71 2.7 E 11 17 6 9 1025.3 1025.3 0.0
21/07:30pm 15.6 13.0 9.3 66 3.3 E 13 20 7 11 1025.2 1025.2 0.0
21/07:00pm 17.0 13.8 9.9 63 3.7 E 17 30 9 16 1024.9 1024.9 0.0
21/06:30pm 18.3 15.2 10.4 60 4.2 E 17 24 9 13 1024.9 1024.9 0.0
21/06:00pm 19.1 15.9 10.1 56 4.8 E 17 26 9 14 1024.9 1024.9 0.0
21/05:30pm 20.1 17.4 10.5 54 5.2 ENE 15 24 8 13 1024.8 1024.8 0.0
21/05:00pm 20.8 18.0 11.2 54 5.3 E 17 26 9 14 1024.8 1024.8 0.0
21/04:30pm 21.1 18.3 11.4 54 5.4 E 17 26 9 14 1024.9 1024.9 0.0
21/04:00pm 21.1 18.3 11.2 53 5.4 E 17 26 9 14 1025.3 1025.3 0.0
21/03:30pm 21.3 18.1 11.1 52 5.6 E 19 26 10 14 1025.5 1025.5 0.0
21/03:00pm 21.1 18.0 11.7 55 5.2 ENE 19 28 10 15 1025.8 1025.8 0.0
21/02:30pm 21.2 18.4 11.5 54 5.4 E 17 26 9 14 1026.2 1026.2 0.0
21/02:00pm 20.9 18.9 12.6 59 4.7 ENE 15 22 8 12 1026.8 1026.8 0.0
21/01:30pm 20.4 17.6 12.6 61 4.4 ENE 19 28 10 15 1027.1 1027.1 0.0
21/01:00pm 19.8 16.8 12.1 61 4.3 ENE 19 28 10 15 1027.5 1027.5 0.0
21/12:30pm 19.0 15.8 11.3 61 4.2 NE 19 28 10 15 1027.8 1027.8 0.0
21/12:00pm 18.5 15.5 11.8 65 3.7 NE 19 28 10 15 1028.2 1028.2 0.0
21/11:30am 17.8 14.9 10.9 64 3.7 ENE 17 32 9 17 1028.7 1028.7 0.0
21/11:00am 17.0 13.3 10.1 64 3.6 ENE 20 33 11 18 1029.0 1029.0 0.0
21/10:30am 16.1 12.1 9.1 63 3.6 E 20 30 11 16 1029.3 1029.3 0.0
21/10:00am 15.2 11.3 8.7 65 3.3 E 19 30 10 16 1029.5 1029.5 0.0
21/09:30am 14.7 10.8 8.6 67 3.1 ENE 19 28 10 15 1029.5 1029.5 0.0
21/09:00am 13.6 9.3 8.0 69 2.8 E 20 30 11 16 1029.5 1029.5 0.0
21/08:30am 12.3 8.0 8.0 75 2.1 ENE 20 28 11 15 1029.3 1029.3 0.0
21/08:00am 11.3 7.3 8.2 81 1.5 E 19 26 10 14 1029.1 1029.1 0.0
21/07:30am 10.3 7.5 8.4 88 0.9 ENE 13 20 7 11 1028.9 1028.9 0.0
21/07:00am 9.5 6.1 7.6 88 0.9 ENE 15 24 8 13 1028.8 1028.8 0.0
21/06:30am 8.5 5.5 7.7 95 0.4 ENE 13 20 7 11 1028.5 1028.5 0.0
21/06:00am 8.6 5.5 7.1 90 0.7 ENE 13 20 7 11 1028.3 1028.3 0.0
21/05:30am 9.2 6.2 7.5 89 0.8 ENE 13 20 7 11 1028.2 1028.2 0.0
21/05:00am 9.6 6.2 7.5 87 1.0 ENE 15 24 8 13 1028.1 1028.1 0.0
21/04:30am 10.0 6.2 7.6 85 1.2 E 17 26 9 14 1028.1 1028.1 0.0
21/04:00am 10.4 6.7 7.8 84 1.2 E 17 26 9 14 1028.2 1028.2 0.0
21/03:30am 10.8 7.5 8.0 83 1.4 ENE 15 24 8 13 1028.4 1028.4 0.0
21/03:00am 11.0 7.7 7.9 81 1.5 E 15 20 8 11 1028.6 1028.6 0.0
21/02:30am 11.1 7.4 7.8 80 1.6 E 17 22 9 12 1028.9 1028.9 0.0
21/02:00am 10.4 6.9 7.3 81 1.5 E 15 22 8 12 1029.3 1029.3 0.0
21/01:30am 10.2 6.6 6.7 79 1.6 E 15 22 8 12 1029.6 1029.6 0.0
21/01:00am 10.3 6.7 6.6 78 1.7 E 15 26 8 14 1030.0 1030.1 0.0
21/12:30am 10.4 6.7 6.5 77 1.8 E 15 24 8 13 1030.3 1030.4 0.0
21/12:00am 10.7 6.7 6.6 76 1.9 E 17 26 9 14 1030.6 1030.7 0.0
 
Date/Time
EDT
Temp
°C
App
Temp
°C
Dew
Point
Rel
Hum
%
Delta-T
°C
Wind Press
QNH
hPa
Press
MSL
hPa
Rain
since 9 am
mm
Dir
 
Spd
km/h
Gust
km/h
Spd
kts
Gust
kts
20/11:30pm 11.1 7.1 6.6 74 2.1 E 17 26 9 14 1030.8 1030.9 0.0
20/11:00pm 11.6 7.3 6.9 73 2.2 E 19 30 10 16 1030.9 1031.0 0.0
20/10:30pm 11.7 7.8 7.2 74 2.2 E 17 28 9 15 1031.0 1031.1 0.0
20/10:00pm 11.7 7.4 7.0 73 2.2 E 19 30 10 16 1031.1 1031.2 0.0
20/09:30pm 11.5 7.2 6.8 73 2.2 E 19 28 10 15 1031.0 1031.1 0.0
20/09:00pm 11.7 7.6 6.4 70 2.5 E 17 24 9 13 1030.8 1030.9 0.0
20/08:30pm 12.2 7.7 6.3 67 2.8 E 19 32 10 17 1030.6 1030.7 0.0
20/08:00pm 12.2 7.5 6.0 66 2.9 E 20 32 11 17 1030.3 1030.4 0.0
20/07:30pm 12.9 8.3 6.5 65 3.1 E 20 39 11 21 1030.2 1030.3 0.0
20/07:00pm 13.5 8.6 7.1 65 3.1 E 22 39 12 21 1030.0 1030.1 0.0
20/06:30pm 14.1 9.8 7.2 63 3.4 E 19 33 10 18 1029.9 1030.0 0.0
20/06:00pm 14.5 10.1 7.3 62 3.5 E 20 35 11 19 1029.7 1029.8 0.0
20/05:30pm 15.0 10.3 7.8 62 3.6 E 22 37 12 20 1029.5 1029.5 0.0
20/05:00pm 15.1 10.1 7.9 62 3.6 E 24 39 13 21 1029.4 1029.4 0.0
20/04:30pm 16.3 11.9 9.0 62 3.8 E 22 41 12 22 1029.1 1029.1 0.0
20/04:00pm 16.6 12.1 8.6 59 4.1 E 22 33 12 18 1029.1 1029.1 0.0
20/03:30pm 17.8 13.1 7.8 52 5.1 E 22 35 12 19 1029.1 1029.1 0.0
20/03:00pm 17.6 12.4 7.1 50 5.2 ENE 24 41 13 22 1029.2 1029.2 0.0
20/02:30pm 17.5 12.3 7.3 51 5.1 E 24 39 13 21 1029.3 1029.3 0.0
20/02:00pm 16.9 11.4 7.5 54 4.7 E 26 39 14 21 1029.7 1029.8 0.0

Other Formats:

Comma delimited format used in spreadsheet applications
http://www.bom.gov.au/fwo/IDV60801/IDV60801.94891.axf

JavaScript Object Notation format (JSON) in row-major order
http://www.bom.gov.au/fwo/IDV60801/IDV60801.94891.json